sensor_id;sensor_type;location;lat;lon;timestamp;P1;durP1;ratioP1;P2;durP2;ratioP2
49942;SDS011;36011;53.362;58.948;2022-09-03T00:01:24;9.43;;;4.25;;
49942;SDS011;36011;53.362;58.948;2022-09-03T00:08:10;6.80;;;4.20;;
49942;SDS011;36011;53.362;58.948;2022-09-03T00:11:24;5.03;;;3.90;;
49942;SDS011;36011;53.362;58.948;2022-09-03T00:14:33;4.93;;;3.90;;
49942;SDS011;36011;53.362;58.948;2022-09-03T00:17:56;5.32;;;4.20;;
49942;SDS011;36011;53.362;58.948;2022-09-03T00:21:11;6.60;;;4.97;;
49942;SDS011;36011;53.362;58.948;2022-09-03T00:24:18;6.87;;;4.73;;
49942;SDS011;36011;53.362;58.948;2022-09-03T00:27:27;15.30;;;10.70;;
49942;SDS011;36011;53.362;58.948;2022-09-03T00:30:32;9.93;;;6.38;;
49942;SDS011;36011;53.362;58.948;2022-09-03T00:33:35;7.20;;;5.30;;
49942;SDS011;36011;53.362;58.948;2022-09-03T00:36:40;4.78;;;4.15;;
49942;SDS011;36011;53.362;58.948;2022-09-03T00:46:00;5.57;;;4.10;;
49942;SDS011;36011;53.362;58.948;2022-09-03T00:52:43;6.45;;;4.30;;
49942;SDS011;36011;53.362;58.948;2022-09-03T00:55:57;5.45;;;4.05;;
49942;SDS011;36011;53.362;58.948;2022-09-03T01:03:08;5.90;;;4.50;;
49942;SDS011;36011;53.362;58.948;2022-09-03T01:06:16;5.57;;;4.20;;
49942;SDS011;36011;53.362;58.948;2022-09-03T01:12:39;7.20;;;4.80;;
49942;SDS011;36011;53.362;58.948;2022-09-03T01:26:05;7.38;;;4.75;;
49942;SDS011;36011;53.362;58.948;2022-09-03T01:32:38;7.22;;;5.55;;
49942;SDS011;36011;53.362;58.948;2022-09-03T01:42:32;6.10;;;4.95;;
49942;SDS011;36011;53.362;58.948;2022-09-03T01:46:01;5.60;;;5.03;;
49942;SDS011;36011;53.362;58.948;2022-09-03T01:49:25;5.65;;;5.07;;
49942;SDS011;36011;53.362;58.948;2022-09-03T01:52:45;6.25;;;5.38;;
49942;SDS011;36011;53.362;58.948;2022-09-03T01:56:06;5.07;;;4.10;;
49942;SDS011;36011;53.362;58.948;2022-09-03T01:59:26;5.22;;;4.47;;
49942;SDS011;36011;53.362;58.948;2022-09-03T02:02:33;6.47;;;5.50;;
49942;SDS011;36011;53.362;58.948;2022-09-03T02:05:36;5.73;;;5.07;;
49942;SDS011;36011;53.362;58.948;2022-09-03T02:08:41;6.47;;;5.75;;
49942;SDS011;36011;53.362;58.948;2022-09-03T02:11:52;5.65;;;5.05;;
49942;SDS011;36011;53.362;58.948;2022-09-03T02:15:04;6.43;;;5.45;;
49942;SDS011;36011;53.362;58.948;2022-09-03T02:18:12;6.65;;;5.80;;
49942;SDS011;36011;53.362;58.948;2022-09-03T02:21:21;6.15;;;5.55;;
49942;SDS011;36011;53.362;58.948;2022-09-03T02:24:27;5.07;;;4.38;;
49942;SDS011;36011;53.362;58.948;2022-09-03T02:27:31;6.28;;;5.65;;
49942;SDS011;36011;53.362;58.948;2022-09-03T02:30:32;7.47;;;5.22;;
49942;SDS011;36011;53.362;58.948;2022-09-03T02:33:39;8.30;;;6.07;;
49942;SDS011;36011;53.362;58.948;2022-09-03T02:36:44;5.85;;;5.30;;
49942;SDS011;36011;53.362;58.948;2022-09-03T02:39:47;6.22;;;5.60;;
49942;SDS011;36011;53.362;58.948;2022-09-03T02:42:48;7.40;;;5.35;;
49942;SDS011;36011;53.362;58.948;2022-09-03T02:45:51;6.63;;;5.95;;
49942;SDS011;36011;53.362;58.948;2022-09-03T02:48:59;7.18;;;5.90;;
49942;SDS011;36011;53.362;58.948;2022-09-03T02:52:03;6.90;;;6.20;;
49942;SDS011;36011;53.362;58.948;2022-09-03T02:55:11;8.55;;;6.65;;
49942;SDS011;36011;53.362;58.948;2022-09-03T02:58:15;10.32;;;7.57;;
49942;SDS011;36011;53.362;58.948;2022-09-03T03:01:22;10.88;;;8.30;;
49942;SDS011;36011;53.362;58.948;2022-09-03T03:04:27;8.65;;;6.82;;
49942;SDS011;36011;53.362;58.948;2022-09-03T03:10:35;10.07;;;7.85;;
49942;SDS011;36011;53.362;58.948;2022-09-03T03:13:40;10.20;;;7.50;;
49942;SDS011;36011;53.362;58.948;2022-09-03T03:16:41;10.38;;;8.45;;
49942;SDS011;36011;53.362;58.948;2022-09-03T03:19:45;11.05;;;8.32;;
49942;SDS011;36011;53.362;58.948;2022-09-03T03:22:46;10.32;;;9.27;;
49942;SDS011;36011;53.362;58.948;2022-09-03T03:25:50;10.70;;;9.02;;
49942;SDS011;36011;53.362;58.948;2022-09-03T03:28:55;11.00;;;8.88;;
49942;SDS011;36011;53.362;58.948;2022-09-03T03:32:00;10.25;;;8.57;;
49942;SDS011;36011;53.362;58.948;2022-09-03T03:35:04;9.90;;;7.13;;
49942;SDS011;36011;53.362;58.948;2022-09-03T03:38:09;11.90;;;8.88;;
49942;SDS011;36011;53.362;58.948;2022-09-03T03:41:19;10.13;;;9.00;;
49942;SDS011;36011;53.362;58.948;2022-09-03T03:44:24;12.73;;;10.18;;
49942;SDS011;36011;53.362;58.948;2022-09-03T03:47:26;10.88;;;8.18;;
49942;SDS011;36011;53.362;58.948;2022-09-03T03:50:30;10.98;;;9.60;;
49942;SDS011;36011;53.362;58.948;2022-09-03T03:53:35;11.73;;;9.68;;
49942;SDS011;36011;53.362;58.948;2022-09-03T03:56:40;11.10;;;9.57;;
49942;SDS011;36011;53.362;58.948;2022-09-03T03:59:42;10.18;;;8.55;;
49942;SDS011;36011;53.362;58.948;2022-09-03T04:02:46;13.23;;;9.02;;
49942;SDS011;36011;53.362;58.948;2022-09-03T04:05:56;11.43;;;9.48;;
49942;SDS011;36011;53.362;58.948;2022-09-03T04:09:05;13.43;;;9.90;;
49942;SDS011;36011;53.362;58.948;2022-09-03T04:12:06;13.38;;;10.45;;
49942;SDS011;36011;53.362;58.948;2022-09-03T04:15:12;13.90;;;11.15;;
49942;SDS011;36011;53.362;58.948;2022-09-03T04:18:13;13.80;;;9.73;;
49942;SDS011;36011;53.362;58.948;2022-09-03T04:21:19;15.90;;;8.98;;
49942;SDS011;36011;53.362;58.948;2022-09-03T04:24:35;12.07;;;9.50;;
49942;SDS011;36011;53.362;58.948;2022-09-03T04:27:39;12.32;;;9.40;;
49942;SDS011;36011;53.362;58.948;2022-09-03T04:30:40;11.70;;;9.35;;
49942;SDS011;36011;53.362;58.948;2022-09-03T04:33:45;11.48;;;9.80;;
49942;SDS011;36011;53.362;58.948;2022-09-03T04:36:47;10.77;;;8.77;;
49942;SDS011;36011;53.362;58.948;2022-09-03T04:39:50;11.13;;;9.43;;
49942;SDS011;36011;53.362;58.948;2022-09-03T04:42:57;12.57;;;9.02;;
49942;SDS011;36011;53.362;58.948;2022-09-03T04:46:02;12.68;;;9.98;;
49942;SDS011;36011;53.362;58.948;2022-09-03T04:49:05;12.07;;;10.57;;
49942;SDS011;36011;53.362;58.948;2022-09-03T04:52:09;12.38;;;9.60;;
49942;SDS011;36011;53.362;58.948;2022-09-03T04:55:15;11.60;;;10.10;;
49942;SDS011;36011;53.362;58.948;2022-09-03T04:58:19;12.75;;;10.43;;
49942;SDS011;36011;53.362;58.948;2022-09-03T05:01:23;15.18;;;9.77;;
49942;SDS011;36011;53.362;58.948;2022-09-03T05:04:29;12.70;;;9.38;;
49942;SDS011;36011;53.362;58.948;2022-09-03T05:07:33;11.38;;;8.93;;
49942;SDS011;36011;53.362;58.948;2022-09-03T05:10:38;14.30;;;11.40;;
49942;SDS011;36011;53.362;58.948;2022-09-03T05:13:45;14.77;;;10.82;;
49942;SDS011;36011;53.362;58.948;2022-09-03T05:16:48;12.30;;;8.90;;
49942;SDS011;36011;53.362;58.948;2022-09-03T05:19:55;13.20;;;9.23;;
49942;SDS011;36011;53.362;58.948;2022-09-03T05:23:00;13.10;;;8.15;;
49942;SDS011;36011;53.362;58.948;2022-09-03T05:26:06;9.93;;;7.75;;
49942;SDS011;36011;53.362;58.948;2022-09-03T05:29:15;10.25;;;8.52;;
49942;SDS011;36011;53.362;58.948;2022-09-03T05:32:20;11.55;;;9.75;;
49942;SDS011;36011;53.362;58.948;2022-09-03T05:35:25;10.90;;;8.57;;
49942;SDS011;36011;53.362;58.948;2022-09-03T05:38:29;10.57;;;8.98;;
49942;SDS011;36011;53.362;58.948;2022-09-03T05:41:32;10.50;;;8.23;;
49942;SDS011;36011;53.362;58.948;2022-09-03T05:44:36;8.43;;;7.13;;
49942;SDS011;36011;53.362;58.948;2022-09-03T05:47:43;8.57;;;7.63;;
49942;SDS011;36011;53.362;58.948;2022-09-03T05:50:49;8.45;;;6.80;;
49942;SDS011;36011;53.362;58.948;2022-09-03T05:54:09;9.97;;;7.30;;
49942;SDS011;36011;53.362;58.948;2022-09-03T05:57:17;8.60;;;6.85;;
49942;SDS011;36011;53.362;58.948;2022-09-03T06:00:19;10.38;;;6.53;;
49942;SDS011;36011;53.362;58.948;2022-09-03T06:03:24;6.20;;;5.60;;
49942;SDS011;36011;53.362;58.948;2022-09-03T06:06:31;7.35;;;5.45;;
49942;SDS011;36011;53.362;58.948;2022-09-03T06:09:37;6.47;;;5.88;;
49942;SDS011;36011;53.362;58.948;2022-09-03T06:12:41;6.63;;;5.95;;
49942;SDS011;36011;53.362;58.948;2022-09-03T06:15:49;7.40;;;6.35;;
49942;SDS011;36011;53.362;58.948;2022-09-03T06:18:58;7.82;;;5.40;;
49942;SDS011;36011;53.362;58.948;2022-09-03T06:22:02;8.88;;;6.45;;
49942;SDS011;36011;53.362;58.948;2022-09-03T06:25:06;10.75;;;6.50;;
49942;SDS011;36011;53.362;58.948;2022-09-03T06:28:11;6.80;;;6.10;;
49942;SDS011;36011;53.362;58.948;2022-09-03T06:31:17;9.77;;;5.60;;
49942;SDS011;36011;53.362;58.948;2022-09-03T06:34:20;7.93;;;5.75;;
49942;SDS011;36011;53.362;58.948;2022-09-03T06:37:25;7.60;;;6.30;;
49942;SDS011;36011;53.362;58.948;2022-09-03T06:40:26;6.93;;;5.10;;
49942;SDS011;36011;53.362;58.948;2022-09-03T06:43:29;5.43;;;4.93;;
49942;SDS011;36011;53.362;58.948;2022-09-03T06:46:33;6.47;;;5.00;;
49942;SDS011;36011;53.362;58.948;2022-09-03T06:49:38;7.97;;;6.72;;
49942;SDS011;36011;53.362;58.948;2022-09-03T06:52:42;9.25;;;5.43;;
49942;SDS011;36011;53.362;58.948;2022-09-03T06:55:52;5.90;;;5.25;;
49942;SDS011;36011;53.362;58.948;2022-09-03T06:59:02;5.75;;;5.22;;
49942;SDS011;36011;53.362;58.948;2022-09-03T07:02:08;8.25;;;5.05;;
49942;SDS011;36011;53.362;58.948;2022-09-03T07:05:09;8.02;;;6.05;;
49942;SDS011;36011;53.362;58.948;2022-09-03T07:08:14;5.22;;;4.25;;
49942;SDS011;36011;53.362;58.948;2022-09-03T07:11:20;7.32;;;4.78;;
49942;SDS011;36011;53.362;58.948;2022-09-03T07:14:23;6.18;;;4.68;;
49942;SDS011;36011;53.362;58.948;2022-09-03T07:17:25;7.25;;;5.00;;
49942;SDS011;36011;53.362;58.948;2022-09-03T07:20:30;7.60;;;5.30;;
49942;SDS011;36011;53.362;58.948;2022-09-03T07:23:37;7.45;;;5.50;;
49942;SDS011;36011;53.362;58.948;2022-09-03T07:26:40;7.57;;;5.43;;
49942;SDS011;36011;53.362;58.948;2022-09-03T07:29:48;5.50;;;4.68;;
49942;SDS011;36011;53.362;58.948;2022-09-03T07:32:52;6.97;;;5.57;;
49942;SDS011;36011;53.362;58.948;2022-09-03T07:36:02;7.20;;;5.63;;
49942;SDS011;36011;53.362;58.948;2022-09-03T07:39:06;6.55;;;5.07;;
49942;SDS011;36011;53.362;58.948;2022-09-03T07:42:11;7.25;;;6.03;;
49942;SDS011;36011;53.362;58.948;2022-09-03T07:45:13;7.88;;;5.55;;
49942;SDS011;36011;53.362;58.948;2022-09-03T07:48:17;8.32;;;5.90;;
49942;SDS011;36011;53.362;58.948;2022-09-03T07:51:19;7.03;;;6.13;;
49942;SDS011;36011;53.362;58.948;2022-09-03T07:54:24;5.72;;;5.13;;
49942;SDS011;36011;53.362;58.948;2022-09-03T07:57:29;7.45;;;5.93;;
49942;SDS011;36011;53.362;58.948;2022-09-03T08:00:33;9.15;;;6.35;;
49942;SDS011;36011;53.362;58.948;2022-09-03T08:03:37;7.88;;;5.85;;
49942;SDS011;36011;53.362;58.948;2022-09-03T08:06:43;7.93;;;5.53;;
49942;SDS011;36011;53.362;58.948;2022-09-03T08:09:45;5.82;;;4.90;;
49942;SDS011;36011;53.362;58.948;2022-09-03T08:12:48;7.32;;;5.43;;
49942;SDS011;36011;53.362;58.948;2022-09-03T08:15:55;7.30;;;5.10;;
49942;SDS011;36011;53.362;58.948;2022-09-03T08:18:59;6.20;;;5.35;;
49942;SDS011;36011;53.362;58.948;2022-09-03T08:22:04;8.15;;;4.70;;
49942;SDS011;36011;53.362;58.948;2022-09-03T08:25:08;8.27;;;5.90;;
49942;SDS011;36011;53.362;58.948;2022-09-03T08:28:11;6.28;;;5.68;;
49942;SDS011;36011;53.362;58.948;2022-09-03T08:31:14;6.18;;;5.22;;
49942;SDS011;36011;53.362;58.948;2022-09-03T08:34:20;7.22;;;5.05;;
49942;SDS011;36011;53.362;58.948;2022-09-03T08:37:21;7.78;;;5.38;;
49942;SDS011;36011;53.362;58.948;2022-09-03T08:40:31;6.93;;;4.75;;
49942;SDS011;36011;53.362;58.948;2022-09-03T08:43:47;8.52;;;4.40;;
49942;SDS011;36011;53.362;58.948;2022-09-03T08:47:20;7.53;;;4.18;;
49942;SDS011;36011;53.362;58.948;2022-09-03T08:50:30;5.80;;;4.30;;
49942;SDS011;36011;53.362;58.948;2022-09-03T08:53:42;4.50;;;3.88;;
49942;SDS011;36011;53.362;58.948;2022-09-03T08:56:53;5.15;;;4.00;;
49942;SDS011;36011;53.362;58.948;2022-09-03T08:59:56;7.05;;;4.40;;
49942;SDS011;36011;53.362;58.948;2022-09-03T09:09:35;4.70;;;3.60;;
49942;SDS011;36011;53.362;58.948;2022-09-03T09:16:05;7.10;;;4.70;;
49942;SDS011;36011;53.362;58.948;2022-09-03T09:19:41;5.33;;;4.73;;
49942;SDS011;36011;53.362;58.948;2022-09-03T09:23:04;6.18;;;4.07;;
49942;SDS011;36011;53.362;58.948;2022-09-03T09:26:08;7.55;;;4.15;;
49942;SDS011;36011;53.362;58.948;2022-09-03T09:29:16;5.85;;;3.85;;
49942;SDS011;36011;53.362;58.948;2022-09-03T09:32:20;6.70;;;4.72;;
49942;SDS011;36011;53.362;58.948;2022-09-03T09:35:22;7.07;;;4.18;;
49942;SDS011;36011;53.362;58.948;2022-09-03T09:38:28;6.22;;;4.30;;
49942;SDS011;36011;53.362;58.948;2022-09-03T09:41:34;7.28;;;5.22;;
49942;SDS011;36011;53.362;58.948;2022-09-03T09:44:38;6.35;;;4.82;;
49942;SDS011;36011;53.362;58.948;2022-09-03T09:47:44;5.30;;;4.38;;
49942;SDS011;36011;53.362;58.948;2022-09-03T09:51:16;5.05;;;4.35;;
49942;SDS011;36011;53.362;58.948;2022-09-03T09:54:24;8.68;;;5.20;;
49942;SDS011;36011;53.362;58.948;2022-09-03T09:57:27;5.57;;;4.25;;
49942;SDS011;36011;53.362;58.948;2022-09-03T10:00:31;5.05;;;3.92;;
49942;SDS011;36011;53.362;58.948;2022-09-03T10:03:46;6.97;;;4.55;;
49942;SDS011;36011;53.362;58.948;2022-09-03T10:06:54;5.97;;;3.67;;
49942;SDS011;36011;53.362;58.948;2022-09-03T10:10:22;6.82;;;4.28;;
49942;SDS011;36011;53.362;58.948;2022-09-03T10:13:34;5.50;;;3.75;;
49942;SDS011;36011;53.362;58.948;2022-09-03T10:16:44;6.30;;;3.38;;
49942;SDS011;36011;53.362;58.948;2022-09-03T10:23:32;5.25;;;3.47;;
49942;SDS011;36011;53.362;58.948;2022-09-03T10:26:44;4.15;;;2.92;;
49942;SDS011;36011;53.362;58.948;2022-09-03T10:29:48;5.05;;;3.13;;
49942;SDS011;36011;53.362;58.948;2022-09-03T10:36:08;5.00;;;3.65;;
49942;SDS011;36011;53.362;58.948;2022-09-03T10:39:24;5.35;;;3.33;;
49942;SDS011;36011;53.362;58.948;2022-09-03T10:46:06;7.43;;;3.53;;
49942;SDS011;36011;53.362;58.948;2022-09-03T10:52:42;4.20;;;3.15;;
49942;SDS011;36011;53.362;58.948;2022-09-03T11:06:05;5.90;;;3.58;;
49942;SDS011;36011;53.362;58.948;2022-09-03T11:09:17;3.97;;;3.58;;
49942;SDS011;36011;53.362;58.948;2022-09-03T11:12:28;4.88;;;4.10;;
49942;SDS011;36011;53.362;58.948;2022-09-03T11:16:01;5.22;;;4.32;;
49942;SDS011;36011;53.362;58.948;2022-09-03T11:19:18;7.00;;;4.75;;
49942;SDS011;36011;53.362;58.948;2022-09-03T11:22:25;7.13;;;4.15;;
49942;SDS011;36011;53.362;58.948;2022-09-03T11:25:52;5.95;;;4.22;;
49942;SDS011;36011;53.362;58.948;2022-09-03T11:32:15;6.40;;;3.50;;
49942;SDS011;36011;53.362;58.948;2022-09-03T11:35:36;3.95;;;3.00;;
49942;SDS011;36011;53.362;58.948;2022-09-03T11:38:41;5.03;;;3.05;;
49942;SDS011;36011;53.362;58.948;2022-09-03T11:41:55;3.58;;;2.50;;
49942;SDS011;36011;53.362;58.948;2022-09-03T11:48:30;6.32;;;4.25;;
49942;SDS011;36011;53.362;58.948;2022-09-03T11:51:41;5.53;;;3.30;;
49942;SDS011;36011;53.362;58.948;2022-09-03T11:54:44;3.78;;;3.40;;
49942;SDS011;36011;53.362;58.948;2022-09-03T12:00:48;5.50;;;3.03;;
49942;SDS011;36011;53.362;58.948;2022-09-03T12:04:12;4.05;;;2.88;;
49942;SDS011;36011;53.362;58.948;2022-09-03T12:10:55;3.20;;;2.70;;
49942;SDS011;36011;53.362;58.948;2022-09-03T12:14:26;4.20;;;3.20;;
49942;SDS011;36011;53.362;58.948;2022-09-03T12:17:48;10.05;;;5.30;;
49942;SDS011;36011;53.362;58.948;2022-09-03T12:21:15;6.03;;;3.80;;
49942;SDS011;36011;53.362;58.948;2022-09-03T12:24:17;7.07;;;4.03;;
49942;SDS011;36011;53.362;58.948;2022-09-03T12:27:25;5.80;;;4.25;;
49942;SDS011;36011;53.362;58.948;2022-09-03T12:30:35;5.70;;;4.15;;
49942;SDS011;36011;53.362;58.948;2022-09-03T12:33:42;10.18;;;5.60;;
49942;SDS011;36011;53.362;58.948;2022-09-03T12:36:47;8.57;;;5.22;;
49942;SDS011;36011;53.362;58.948;2022-09-03T12:39:53;5.32;;;3.92;;
49942;SDS011;36011;53.362;58.948;2022-09-03T12:43:12;8.68;;;4.90;;
49942;SDS011;36011;53.362;58.948;2022-09-03T12:46:19;6.40;;;5.10;;
49942;SDS011;36011;53.362;58.948;2022-09-03T12:49:24;7.40;;;4.60;;
49942;SDS011;36011;53.362;58.948;2022-09-03T12:55:36;6.25;;;4.35;;
49942;SDS011;36011;53.362;58.948;2022-09-03T13:01:53;8.70;;;6.60;;
49942;SDS011;36011;53.362;58.948;2022-09-03T13:04:59;8.35;;;6.22;;
49942;SDS011;36011;53.362;58.948;2022-09-03T13:08:01;6.53;;;4.60;;
49942;SDS011;36011;53.362;58.948;2022-09-03T13:11:08;5.57;;;4.32;;
49942;SDS011;36011;53.362;58.948;2022-09-03T13:14:10;6.65;;;4.65;;
49942;SDS011;36011;53.362;58.948;2022-09-03T13:20:28;7.57;;;5.40;;
49942;SDS011;36011;53.362;58.948;2022-09-03T13:23:47;9.77;;;6.70;;
49942;SDS011;36011;53.362;58.948;2022-09-03T13:27:09;10.57;;;5.43;;
49942;SDS011;36011;53.362;58.948;2022-09-03T13:30:19;7.85;;;5.35;;
49942;SDS011;36011;53.362;58.948;2022-09-03T13:40:02;6.95;;;4.35;;
49942;SDS011;36011;53.362;58.948;2022-09-03T13:43:30;9.65;;;6.15;;
49942;SDS011;36011;53.362;58.948;2022-09-03T14:00:04;10.90;;;5.97;;
49942;SDS011;36011;53.362;58.948;2022-09-03T14:03:24;11.68;;;6.95;;
49942;SDS011;36011;53.362;58.948;2022-09-03T14:06:43;14.18;;;8.25;;
49942;SDS011;36011;53.362;58.948;2022-09-03T14:09:53;14.30;;;8.15;;
49942;SDS011;36011;53.362;58.948;2022-09-03T14:16:53;11.65;;;8.80;;
49942;SDS011;36011;53.362;58.948;2022-09-03T14:23:28;13.48;;;8.52;;
49942;SDS011;36011;53.362;58.948;2022-09-03T14:26:34;16.73;;;9.48;;
49942;SDS011;36011;53.362;58.948;2022-09-03T14:29:37;13.95;;;8.10;;
49942;SDS011;36011;53.362;58.948;2022-09-03T14:36:21;13.93;;;8.75;;
49942;SDS011;36011;53.362;58.948;2022-09-03T15:10:25;13.60;;;6.90;;
49942;SDS011;36011;53.362;58.948;2022-09-03T15:13:32;10.77;;;6.80;;
49942;SDS011;36011;53.362;58.948;2022-09-03T15:31:00;11.20;;;6.18;;
49942;SDS011;36011;53.362;58.948;2022-09-03T15:34:18;11.68;;;6.90;;
49942;SDS011;36011;53.362;58.948;2022-09-03T15:40:55;11.10;;;6.53;;
49942;SDS011;36011;53.362;58.948;2022-09-03T15:44:01;8.35;;;5.60;;
49942;SDS011;36011;53.362;58.948;2022-09-03T15:47:06;11.25;;;6.50;;
49942;SDS011;36011;53.362;58.948;2022-09-03T15:50:23;10.30;;;6.68;;
49942;SDS011;36011;53.362;58.948;2022-09-03T16:00:28;12.75;;;7.38;;
49942;SDS011;36011;53.362;58.948;2022-09-03T16:03:52;11.80;;;7.75;;
49942;SDS011;36011;53.362;58.948;2022-09-03T16:07:08;13.98;;;8.52;;
49942;SDS011;36011;53.362;58.948;2022-09-03T16:17:38;12.90;;;7.50;;
49942;SDS011;36011;53.362;58.948;2022-09-03T16:41:17;12.48;;;7.65;;
49942;SDS011;36011;53.362;58.948;2022-09-03T16:47:52;10.55;;;6.75;;
49942;SDS011;36011;53.362;58.948;2022-09-03T16:54:40;12.02;;;7.22;;
49942;SDS011;36011;53.362;58.948;2022-09-03T17:01:59;10.77;;;5.70;;
49942;SDS011;36011;53.362;58.948;2022-09-03T17:15:52;5.28;;;3.38;;
49942;SDS011;36011;53.362;58.948;2022-09-03T17:22:49;5.05;;;3.10;;
49942;SDS011;36011;53.362;58.948;2022-09-03T17:26:38;3.72;;;2.30;;
49942;SDS011;36011;53.362;58.948;2022-09-03T17:36:35;9.02;;;3.67;;
49942;SDS011;36011;53.362;58.948;2022-09-03T17:43:22;4.43;;;2.30;;
49942;SDS011;36011;53.362;58.948;2022-09-03T17:46:42;5.68;;;3.00;;
49942;SDS011;36011;53.362;58.948;2022-09-03T17:50:17;4.78;;;2.70;;
49942;SDS011;36011;53.362;58.948;2022-09-03T18:00:06;5.87;;;3.50;;
49942;SDS011;36011;53.362;58.948;2022-09-03T18:06:23;6.63;;;3.22;;
49942;SDS011;36011;53.362;58.948;2022-09-03T18:09:45;5.47;;;3.28;;
49942;SDS011;36011;53.362;58.948;2022-09-03T18:16:23;4.97;;;3.03;;
49942;SDS011;36011;53.362;58.948;2022-09-03T18:23:07;3.95;;;2.92;;
49942;SDS011;36011;53.362;58.948;2022-09-03T18:26:48;4.97;;;2.92;;
49942;SDS011;36011;53.362;58.948;2022-09-03T18:30:15;3.25;;;2.25;;
49942;SDS011;36011;53.362;58.948;2022-09-03T18:33:35;5.18;;;2.88;;
49942;SDS011;36011;53.362;58.948;2022-09-03T18:36:56;7.10;;;2.38;;
49942;SDS011;36011;53.362;58.948;2022-09-03T18:40:21;5.82;;;2.80;;
49942;SDS011;36011;53.362;58.948;2022-09-03T18:51:26;6.78;;;2.50;;
49942;SDS011;36011;53.362;58.948;2022-09-03T18:55:11;3.03;;;2.38;;
49942;SDS011;36011;53.362;58.948;2022-09-03T18:58:55;3.38;;;2.38;;
49942;SDS011;36011;53.362;58.948;2022-09-03T19:09:55;6.35;;;2.65;;
49942;SDS011;36011;53.362;58.948;2022-09-03T19:13:37;4.32;;;2.35;;
49942;SDS011;36011;53.362;58.948;2022-09-03T19:17:04;5.57;;;2.70;;
49942;SDS011;36011;53.362;58.948;2022-09-03T19:20:34;4.82;;;2.40;;
49942;SDS011;36011;53.362;58.948;2022-09-03T19:23:58;4.80;;;2.80;;
49942;SDS011;36011;53.362;58.948;2022-09-03T19:31:04;3.85;;;2.50;;
49942;SDS011;36011;53.362;58.948;2022-09-03T19:38:04;2.83;;;2.15;;
49942;SDS011;36011;53.362;58.948;2022-09-03T19:41:51;3.97;;;2.30;;
49942;SDS011;36011;53.362;58.948;2022-09-03T19:45:35;4.45;;;2.67;;
49942;SDS011;36011;53.362;58.948;2022-09-03T19:52:44;4.30;;;2.70;;
49942;SDS011;36011;53.362;58.948;2022-09-03T19:56:13;6.15;;;2.88;;
49942;SDS011;36011;53.362;58.948;2022-09-03T19:59:43;6.72;;;3.38;;
49942;SDS011;36011;53.362;58.948;2022-09-03T20:03:07;5.43;;;3.03;;
49942;SDS011;36011;53.362;58.948;2022-09-03T20:06:30;5.47;;;3.38;;
49942;SDS011;36011;53.362;58.948;2022-09-03T20:09:56;6.30;;;3.60;;
49942;SDS011;36011;53.362;58.948;2022-09-03T20:13:24;4.85;;;3.05;;
49942;SDS011;36011;53.362;58.948;2022-09-03T20:16:30;6.32;;;3.60;;
49942;SDS011;36011;53.362;58.948;2022-09-03T20:23:39;7.05;;;3.45;;
49942;SDS011;36011;53.362;58.948;2022-09-03T20:26:55;7.95;;;3.03;;
49942;SDS011;36011;53.362;58.948;2022-09-03T20:30:12;4.63;;;3.13;;
49942;SDS011;36011;53.362;58.948;2022-09-03T20:33:22;5.47;;;3.50;;
49942;SDS011;36011;53.362;58.948;2022-09-03T20:37:02;10.50;;;4.43;;
49942;SDS011;36011;53.362;58.948;2022-09-03T20:51:01;5.43;;;2.85;;
49942;SDS011;36011;53.362;58.948;2022-09-03T21:01:12;4.88;;;3.13;;
49942;SDS011;36011;53.362;58.948;2022-09-03T21:14:53;5.55;;;3.60;;
49942;SDS011;36011;53.362;58.948;2022-09-03T21:21:51;5.30;;;3.08;;
49942;SDS011;36011;53.362;58.948;2022-09-03T21:25:04;5.22;;;2.70;;
49942;SDS011;36011;53.362;58.948;2022-09-03T21:31:23;4.55;;;3.30;;
49942;SDS011;36011;53.362;58.948;2022-09-03T21:34:36;5.17;;;2.60;;
49942;SDS011;36011;53.362;58.948;2022-09-03T21:38:05;4.07;;;3.00;;
49942;SDS011;36011;53.362;58.948;2022-09-03T21:41:20;5.82;;;3.00;;
49942;SDS011;36011;53.362;58.948;2022-09-03T21:47:44;9.43;;;4.45;;
49942;SDS011;36011;53.362;58.948;2022-09-03T21:50:59;8.68;;;4.40;;
49942;SDS011;36011;53.362;58.948;2022-09-03T21:54:05;5.10;;;3.40;;
49942;SDS011;36011;53.362;58.948;2022-09-03T22:00:25;6.45;;;3.15;;
49942;SDS011;36011;53.362;58.948;2022-09-03T22:03:32;5.03;;;3.22;;
49942;SDS011;36011;53.362;58.948;2022-09-03T22:06:50;6.55;;;2.92;;
49942;SDS011;36011;53.362;58.948;2022-09-03T22:10:31;5.88;;;3.30;;
49942;SDS011;36011;53.362;58.948;2022-09-03T22:17:04;7.10;;;3.83;;
49942;SDS011;36011;53.362;58.948;2022-09-03T22:20:12;6.88;;;3.88;;
49942;SDS011;36011;53.362;58.948;2022-09-03T22:23:20;7.22;;;3.85;;
49942;SDS011;36011;53.362;58.948;2022-09-03T22:26:38;6.00;;;3.30;;
49942;SDS011;36011;53.362;58.948;2022-09-03T22:42:45;4.35;;;3.33;;
49942;SDS011;36011;53.362;58.948;2022-09-03T22:56:15;6.07;;;3.22;;
49942;SDS011;36011;53.362;58.948;2022-09-03T22:59:26;5.55;;;3.58;;
49942;SDS011;36011;53.362;58.948;2022-09-03T23:03:06;4.35;;;3.13;;
49942;SDS011;36011;53.362;58.948;2022-09-03T23:06:25;4.15;;;3.47;;
49942;SDS011;36011;53.362;58.948;2022-09-03T23:09:37;6.30;;;3.97;;
49942;SDS011;36011;53.362;58.948;2022-09-03T23:16:10;4.97;;;3.53;;
49942;SDS011;36011;53.362;58.948;2022-09-03T23:19:24;6.03;;;3.65;;
49942;SDS011;36011;53.362;58.948;2022-09-03T23:22:36;6.45;;;3.20;;
49942;SDS011;36011;53.362;58.948;2022-09-03T23:25:52;5.32;;;3.33;;
49942;SDS011;36011;53.362;58.948;2022-09-03T23:29:17;8.30;;;4.05;;
49942;SDS011;36011;53.362;58.948;2022-09-03T23:32:34;6.30;;;3.35;;
49942;SDS011;36011;53.362;58.948;2022-09-03T23:35:47;4.82;;;3.45;;
49942;SDS011;36011;53.362;58.948;2022-09-03T23:39:12;6.15;;;3.50;;
